Terminal Aerodrome Forecast
Issued by NWS

Home | Current Version | Previous Version | Text Only | Print | Product List | Glossary On
Versions: 1 2 3 4 5 6 7 8 9 10 11 12 13 14 15 16
000
FTUS44 KCRP 280500
TAFALI
TAF
KALI 280520Z 2806/0106 03014KT 5SM -DZ BR SCT007 OVC012
      TEMPO 2806/2808 2SM -RA BR OVC007
     FM280800 02012KT 4SM -RA BR OVC007
     FM281300 01011KT 2SM -SHRA BR OVC004
     FM282000 36010KT 5SM BR OVC008
      TEMPO 2820/2824 2SM -SHRA BR OVC004
     FM010000 35009KT 3SM -RADZ BR OVC005=

USA.gov is the U.S. government's official web portal to all federal, state and local government web resources and services.